Time;durP1;ratioP1;P1;durP2;ratioP2;P2;SDS_P1;SDS_P2;PMS_P1;PMS_P2;Temp;Humidity;BMP_temperature;BMP_pressure;BME280_temperature;BME280_humidity;BME280_pressure;Samples;Min_cycle;Max_cycle;Signal;HPM_P1;HPM_P2
2023/07/07 00:00:54;;;;;;;3.35;2.85;;;;;;;27.52;49.32;98899.97;2059292;28;20591;-53
2023/07/07 00:01:56;;;;;;;5.93;3.25;;;;;;;27.49;49.27;98900.50;2057435;28;20070;-46
2023/07/07 00:02:56;;;;;;;4.90;3.45;;;;;;;27.50;49.31;98900.25;2060166;28;20504;-48
2023/07/07 00:03:58;;;;;;;4.05;2.92;;;;;;;27.50;49.12;98902.16;2060593;28;20056;-53
2023/07/07 00:04:59;;;;;;;4.72;3.10;;;;;;;27.50;49.16;98902.16;2060562;28;20081;-52
2023/07/07 00:06:01;;;;;;;4.20;3.20;;;;;;;27.51;48.88;98903.78;2064935;28;20053;-55
2023/07/07 00:07:02;;;;;;;5.22;3.35;;;;;;;27.50;48.66;98897.53;2061056;28;20093;-48
2023/07/07 00:08:04;;;;;;;6.55;3.88;;;;;;;27.50;48.94;98896.72;2063090;28;20096;-47
2023/07/07 00:09:05;;;;;;;3.38;2.95;;;;;;;27.50;48.87;98900.25;2061461;28;20095;-47
2023/07/07 00:10:08;;;;;;;4.05;3.60;;;;;;;27.49;48.89;98897.75;2056899;28;20104;-49
2023/07/07 00:11:09;;;;;;;5.13;3.67;;;;;;;27.47;49.06;98899.91;2058308;28;20535;-51
2023/07/07 00:12:13;;;;;;;4.07;3.67;;;;;;;27.45;49.17;98910.25;2060790;28;20049;-51
2023/07/07 00:13:15;;;;;;;4.85;4.05;;;;;;;27.47;49.28;98903.47;2058904;28;20721;-53
2023/07/07 00:14:17;;;;;;;6.20;3.78;;;;;;;27.47;49.01;98906.22;2059038;28;20054;-52
2023/07/07 00:15:18;;;;;;;5.53;3.28;;;;;;;27.47;49.06;98908.09;2059903;28;20149;-52
2023/07/07 00:16:27;;;;;;;7.78;3.88;;;;;;;27.47;48.90;98908.94;2056365;28;20096;-52
2023/07/07 00:17:28;;;;;;;4.30;2.80;;;;;;;27.48;48.76;98910.56;2052545;28;20423;-51
2023/07/07 00:18:30;;;;;;;4.25;3.13;;;;;;;27.48;48.82;98909.75;2056294;28;20058;-52
2023/07/07 00:19:32;;;;;;;3.60;3.25;;;;;;;27.47;49.11;98903.47;2059639;28;20054;-50
2023/07/07 00:20:34;;;;;;;5.22;3.08;;;;;;;27.45;48.95;98907.53;2055805;28;20140;-55
2023/07/07 00:21:36;;;;;;;5.32;3.47;;;;;;;27.45;49.29;98910.25;2060712;28;20523;-50
2023/07/07 00:22:38;;;;;;;2.88;2.58;;;;;;;27.44;49.08;98908.59;2058985;28;20104;-53
2023/07/07 00:23:39;;;;;;;4.35;3.10;;;;;;;27.44;49.36;98903.97;2058557;28;20042;-46
2023/07/07 00:24:41;;;;;;;3.13;2.83;;;;;;;27.44;49.32;98903.16;2055299;28;20046;-47
2023/07/07 00:25:41;;;;;;;4.85;3.40;;;;;;;27.39;49.19;98902.03;2058749;28;20077;-48
2023/07/07 00:26:43;;;;;;;5.43;3.40;;;;;;;27.40;49.08;98900.94;2058165;28;20049;-54
2023/07/07 00:27:44;;;;;;;5.13;3.20;;;;;;;27.38;49.72;98903.09;2062543;28;20049;-49
2023/07/07 00:28:45;;;;;;;3.90;3.50;;;;;;;27.42;49.08;98900.69;2054492;28;20527;-49
2023/07/07 00:29:47;;;;;;;5.10;3.05;;;;;;;27.44;49.51;98908.59;2056834;28;20117;-52
2023/07/07 00:30:47;;;;;;;4.28;3.08;;;;;;;27.39;49.27;98902.03;2057275;28;20057;-49
2023/07/07 00:31:50;;;;;;;7.63;3.50;;;;;;;27.44;49.16;98909.41;2056906;28;20157;-48
2023/07/07 00:32:52;;;;;;;5.85;3.53;;;;;;;27.44;49.20;98903.16;2059393;28;20077;-52
2023/07/07 00:33:53;;;;;;;4.35;3.00;;;;;;;27.40;49.42;98903.66;2056463;28;20539;-54
2023/07/07 00:34:55;;;;;;;4.38;3.13;;;;;;;27.39;49.08;98902.03;2056878;28;20073;-48
2023/07/07 00:35:56;;;;;;;5.38;3.20;;;;;;;27.40;49.31;98894.69;2060487;28;20727;-50
2023/07/07 00:36:58;;;;;;;3.97;3.00;;;;;;;27.36;49.42;98897.09;2058554;28;20046;-50
2023/07/07 00:37:59;;;;;;;5.40;2.90;;;;;;;27.40;49.71;98891.94;2059092;28;20081;-47
2023/07/07 00:39:00;;;;;;;4.68;3.08;;;;;;;27.39;49.35;98902.03;2056069;28;20053;-48
2023/07/07 00:40:03;;;;;;;3.25;2.78;;;;;;;27.40;49.16;98897.41;2061492;28;20081;-48
2023/07/07 00:41:06;;;;;;;6.53;3.22;;;;;;;27.42;49.45;98899.88;2058775;28;20141;-48
2023/07/07 00:42:08;;;;;;;6.30;2.83;;;;;;;27.40;49.53;98900.94;2058337;28;20080;-49
2023/07/07 00:43:12;;;;;;;7.72;3.42;;;;;;;27.37;49.33;98896.00;2058909;28;20524;-49
2023/07/07 00:44:13;;;;;;;5.03;3.70;;;;;;;27.37;49.70;98900.63;2060882;28;20057;-48
2023/07/07 00:45:17;;;;;;;4.57;2.72;;;;;;;27.35;49.36;98898.16;2057789;28;20133;-48
2023/07/07 00:46:18;;;;;;;4.43;3.05;;;;;;;27.35;49.45;98905.50;2057638;28;20050;-48
2023/07/07 00:47:21;;;;;;;4.18;2.90;;;;;;;27.38;49.39;98903.09;2056428;28;20076;-47
2023/07/07 00:48:26;;;;;;;9.85;4.28;;;;;;;27.39;49.30;98902.03;2060473;28;20516;-48
2023/07/07 00:49:28;;;;;;;5.75;3.88;;;;;;;27.36;49.60;98899.81;2062825;28;20049;-47
2023/07/07 00:50:32;;;;;;;7.65;3.65;;;;;;;27.36;49.55;98902.53;2059363;28;20056;-48
2023/07/07 00:51:36;;;;;;;5.95;3.20;;;;;;;27.34;49.41;98904.69;2059845;28;20397;-47
2023/07/07 00:52:41;;;;;;;4.53;3.25;;;;;;;27.34;49.75;98903.88;2057833;28;20042;-50
2023/07/07 00:53:46;;;;;;;4.13;2.92;;;;;;;27.36;49.41;98905.25;2059554;28;20049;-50
2023/07/07 00:54:47;;;;;;;4.18;2.88;;;;;;;27.35;49.28;98900.06;2057211;28;20045;-49
2023/07/07 00:55:53;;;;;;;6.60;3.47;;;;;;;27.35;49.50;98898.16;2055897;28;20050;-52
2023/07/07 00:56:55;;;;;;;8.02;3.75;;;;;;;27.33;49.33;98900.34;2056942;28;20073;-47
2023/07/07 00:58:01;;;;;;;4.88;3.13;;;;;;;27.32;49.37;98898.66;2059290;28;20668;-50
2023/07/07 00:59:05;;;;;;;5.25;3.30;;;;;;;27.30;49.71;98898.13;2057109;28;20050;-51
2023/07/07 01:00:08;;;;;;;8.63;3.38;;;;;;;27.28;49.45;98900.28;2062563;28;20050;-51
2023/07/07 01:01:13;;;;;;;10.07;3.53;;;;;;;27.30;49.40;98898.13;2061028;28;20072;-47
2023/07/07 01:02:24;;;;;;;3.38;2.83;;;;;;;27.32;49.43;98898.66;2058214;28;20049;-48
2023/07/07 01:03:31;;;;;;;4.30;2.95;;;;;;;27.28;49.62;98905.72;2064064;28;20058;-50
2023/07/07 01:04:34;;;;;;;7.38;2.30;;;;;;;27.31;49.36;98897.03;2057718;28;21932;-48
2023/07/07 01:05:37;;;;;;;3.78;3.00;;;;;;;27.31;49.29;98902.47;2060482;28;20905;-48
2023/07/07 01:06:43;;;;;;;11.18;3.33;;;;;;;27.28;49.50;98911.16;2057410;28;20048;-49
2023/07/07 01:07:51;;;;;;;10.25;3.83;;;;;;;27.27;49.47;98909.50;2054316;28;20088;-48
2023/07/07 01:08:59;;;;;;;6.70;3.00;;;;;;;27.30;49.27;98909.00;2054796;28;20054;-48
2023/07/07 01:10:00;;;;;;;10.27;3.13;;;;;;;27.29;49.71;98906.53;2057752;28;20061;-48
2023/07/07 01:11:02;;;;;;;4.43;3.10;;;;;;;27.28;49.41;98911.16;2058173;28;20054;-48
2023/07/07 01:12:03;;;;;;;5.20;3.45;;;;;;;27.21;49.61;98907.78;2056710;28;20064;-48
2023/07/07 01:13:06;;;;;;;5.93;3.22;;;;;;;27.19;49.91;98915.38;2060081;28;20056;-48
2023/07/07 01:14:13;;;;;;;6.45;3.40;;;;;;;27.23;49.35;98913.00;2059515;28;20054;-50
2023/07/07 01:15:15;;;;;;;5.75;2.97;;;;;;;27.20;49.69;98910.78;2056540;28;20045;-46
2023/07/07 01:16:26;;;;;;;6.97;3.92;;;;;;;27.21;49.40;98918.69;2060341;28;20043;-49
2023/07/07 01:17:37;;;;;;;3.30;3.00;;;;;;;27.20;49.60;98913.50;2049571;28;20049;-48
2023/07/07 01:18:49;;;;;;;5.32;2.70;;;;;;;27.21;49.68;98918.69;2055015;28;20104;-50
2023/07/07 01:20:12;;;;;;;3.55;2.33;;;;;;;27.17;49.91;98921.09;2059022;28;20054;-46
2023/07/07 01:21:29;;;;;;;5.07;2.88;;;;;;;27.18;49.78;98917.28;2059270;28;21942;-47
2023/07/07 01:22:59;;;;;;;4.55;3.05;;;;;;;27.15;49.73;98916.94;2057961;28;20046;-48
2023/07/07 01:24:35;;;;;;;3.53;2.38;;;;;;;27.11;49.89;98913.91;2027566;29;20062;-48
2023/07/07 01:26:05;;;;;;;4.20;2.65;;;;;;;27.14;49.77;98916.13;2059096;28;20081;-53
2023/07/07 01:27:42;;;;;;;6.00;3.13;;;;;;;27.11;49.89;98921.28;2056632;28;20157;-48
2023/07/07 01:29:14;;;;;;;6.18;2.90;;;;;;;27.14;50.09;98916.13;2049388;28;20046;-47
2023/07/07 01:30:35;;;;;;;3.83;2.53;;;;;;;27.17;49.58;98915.66;2057837;28;23015;-51
2023/07/07 01:31:43;;;;;;;5.43;3.05;;;;;;;27.18;49.98;98911.03;2063150;28;20046;-49
2023/07/07 01:32:45;;;;;;;4.35;3.38;;;;;;;27.21;49.48;98921.41;2060779;28;20080;-48
2023/07/07 01:33:48;;;;;;;6.22;2.97;;;;;;;27.20;49.90;98925.22;2066353;28;20851;-49
2023/07/07 01:34:49;;;;;;;3.88;2.95;;;;;;;27.20;49.75;98918.97;2058944;28;20066;-51
2023/07/07 01:35:51;;;;;;;8.25;2.92;;;;;;;27.22;49.95;98927.66;2059237;28;20058;-47
2023/07/07 01:36:52;;;;;;;3.28;2.90;;;;;;;27.24;49.82;98925.53;2063027;28;20061;-53
2023/07/07 01:37:54;;;;;;;4.70;3.10;;;;;;;27.27;49.67;98927.75;2059864;28;20136;-48
2023/07/07 01:38:55;;;;;;;3.90;2.90;;;;;;;27.29;49.55;98931.84;2058783;28;20156;-47
2023/07/07 01:39:57;;;;;;;3.72;2.35;;;;;;;27.25;49.66;98932.63;2061035;28;20101;-52
2023/07/07 01:41:03;;;;;;;4.97;3.13;;;;;;;27.22;49.57;98928.53;2057394;28;20072;-48
2023/07/07 01:42:10;;;;;;;4.30;2.78;;;;;;;27.21;49.81;98926.84;2060109;28;20058;-47
2023/07/07 01:43:17;;;;;;;3.40;2.75;;;;;;;27.18;49.86;98930.91;2057435;28;20073;-54
2023/07/07 01:44:26;;;;;;;3.45;2.78;;;;;;;27.23;49.75;98926.63;2060466;28;20608;-48
2023/07/07 01:45:35;;;;;;;4.43;2.67;;;;;;;27.19;49.56;98923.56;2058592;28;20045;-49
2023/07/07 01:46:41;;;;;;;5.35;3.03;;;;;;;27.21;49.61;98924.13;2053906;28;20133;-46
2023/07/07 01:47:51;;;;;;;3.08;2.03;;;;;;;27.23;49.45;98929.34;2057277;28;20535;-46
2023/07/07 01:48:58;;;;;;;3.30;2.60;;;;;;;27.20;49.70;98924.41;2059517;28;20092;-49
2023/07/07 01:50:07;;;;;;;6.90;2.88;;;;;;;27.23;49.53;98927.44;2061506;28;20165;-49
2023/07/07 01:51:11;;;;;;;4.43;3.13;;;;;;;27.24;49.66;98931.78;2060683;28;20050;-49
2023/07/07 01:52:20;;;;;;;4.00;2.72;;;;;;;27.21;49.81;98935.03;2063353;28;20053;-48
2023/07/07 01:53:24;;;;;;;2.90;2.67;;;;;;;27.22;49.66;98935.84;2065034;28;20139;-48
2023/07/07 01:54:27;;;;;;;6.25;2.72;;;;;;;27.22;49.88;98922.22;2060060;28;20100;-48
2023/07/07 01:55:32;;;;;;;6.22;2.75;;;;;;;27.21;49.82;98926.84;2055788;28;20053;-51
2023/07/07 01:56:33;;;;;;;6.05;3.42;;;;;;;27.22;49.91;98920.34;2059109;28;20053;-48
2023/07/07 01:57:36;;;;;;;4.68;3.10;;;;;;;27.21;49.77;98921.41;2061070;28;20065;-50
2023/07/07 01:58:39;;;;;;;3.95;3.17;;;;;;;27.21;49.78;98915.97;2058954;28;20049;-48
2023/07/07 01:59:42;;;;;;;4.30;3.33;;;;;;;27.20;49.82;98919.78;2057390;28;20050;-49
2023/07/07 02:00:46;;;;;;;4.35;2.28;;;;;;;27.22;49.89;98922.22;2060838;28;20046;-48
2023/07/07 02:01:48;;;;;;;4.57;2.70;;;;;;;27.20;49.98;98924.41;2060464;28;20053;-48
2023/07/07 02:02:51;;;;;;;4.57;2.47;;;;;;;27.22;49.83;98920.34;2062236;28;20054;-51
2023/07/07 02:03:53;;;;;;;3.80;2.55;;;;;;;27.22;49.59;98923.06;2058561;28;22144;-47
2023/07/07 02:04:54;;;;;;;5.60;2.97;;;;;;;27.15;50.01;98923.22;2065010;28;20100;-50
2023/07/07 02:05:56;;;;;;;3.25;2.83;;;;;;;27.15;49.69;98922.41;2059384;28;20045;-51
2023/07/07 02:06:56;;;;;;;3.83;2.67;;;;;;;27.15;50.01;98916.94;2065585;28;20050;-48
2023/07/07 02:07:58;;;;;;;4.25;2.67;;;;;;;27.18;49.83;98917.28;2065489;28;20124;-48
2023/07/07 02:08:59;;;;;;;6.00;2.78;;;;;;;27.14;49.70;98926.22;2065970;28;20077;-51
2023/07/07 02:10:01;;;;;;;4.30;3.17;;;;;;;27.07;50.27;98923.66;2066072;28;20058;-48
2023/07/07 02:11:02;;;;;;;6.07;3.35;;;;;;;27.06;49.95;98923.91;2066386;28;20050;-48
2023/07/07 02:12:04;;;;;;;2.90;2.63;;;;;;;26.99;50.36;98923.28;2063680;28;20058;-48
2023/07/07 02:13:05;;;;;;;4.85;2.60;;;;;;;26.97;50.08;98926.25;2062868;28;20088;-47
2023/07/07 02:14:07;;;;;;;3.50;2.95;;;;;;;26.96;50.14;98925.41;2059289;28;20053;-47
2023/07/07 02:15:08;;;;;;;3.67;2.72;;;;;;;27.01;50.02;98923.84;2064698;28;20050;-48
2023/07/07 02:16:11;;;;;;;4.82;2.40;;;;;;;27.04;49.92;98926.06;2064986;28;20504;-48
2023/07/07 02:17:15;;;;;;;3.45;2.95;;;;;;;27.06;50.15;98926.63;2059150;28;20840;-49
2023/07/07 02:18:17;;;;;;;3.53;2.67;;;;;;;27.07;49.84;98920.09;2057037;28;20053;-48
2023/07/07 02:19:18;;;;;;;3.33;2.53;;;;;;;27.08;50.08;98917.16;2064401;28;20056;-48
2023/07/07 02:20:20;;;;;;;5.10;2.95;;;;;;;27.11;50.12;98921.28;2062016;28;20868;-48
2023/07/07 02:21:21;;;;;;;3.00;2.70;;;;;;;27.10;50.22;98925.06;2064860;28;20050;-48
2023/07/07 02:22:23;;;;;;;3.47;2.85;;;;;;;27.08;49.81;98928.03;2061242;28;20484;-50
2023/07/07 02:23:24;;;;;;;3.33;2.78;;;;;;;27.11;50.05;98922.09;2058708;28;20050;-49
2023/07/07 02:24:25;;;;;;;3.35;2.22;;;;;;;27.11;49.98;98938.41;2060566;28;20050;-47
2023/07/07 02:25:26;;;;;;;3.30;2.78;;;;;;;27.14;49.90;98926.22;2060424;28;20057;-48
2023/07/07 02:26:28;;;;;;;4.95;3.17;;;;;;;27.12;49.85;98928.34;2060752;28;20042;-52
2023/07/07 02:27:29;;;;;;;4.30;2.90;;;;;;;27.12;49.91;98931.06;2057760;28;20965;-50
2023/07/07 02:28:31;;;;;;;2.90;2.38;;;;;;;27.15;49.93;98927.84;2060553;28;20132;-49
2023/07/07 02:29:32;;;;;;;3.58;2.58;;;;;;;27.13;49.88;98927.25;2059000;28;20046;-50
2023/07/07 02:30:35;;;;;;;3.38;2.92;;;;;;;27.16;49.66;98929.50;2056919;28;20048;-48
2023/07/07 02:31:37;;;;;;;3.88;2.65;;;;;;;27.14;49.48;98924.31;2061623;28;20077;-48
2023/07/07 02:32:39;;;;;;;6.20;3.17;;;;;;;27.16;49.78;98926.78;2059264;28;20058;-48
2023/07/07 02:33:40;;;;;;;4.40;2.63;;;;;;;27.15;49.56;98916.94;2059762;28;20085;-47
2023/07/07 02:34:47;;;;;;;3.78;2.63;;;;;;;27.14;49.73;98910.69;2062066;28;20056;-49
2023/07/07 02:35:48;;;;;;;4.63;2.28;;;;;;;27.14;49.90;98918.03;2061596;28;20524;-48
2023/07/07 02:36:52;;;;;;;4.15;2.90;;;;;;;27.12;49.88;98912.00;2059008;28;20061;-48
2023/07/07 02:37:52;;;;;;;2.70;2.33;;;;;;;27.10;50.15;98911.44;2058095;28;20060;-47
2023/07/07 02:38:54;;;;;;;3.53;2.72;;;;;;;27.11;50.24;98918.53;2058040;28;20089;-48
2023/07/07 02:39:55;;;;;;;2.78;2.53;;;;;;;27.11;49.84;98922.09;2058955;28;20424;-49
2023/07/07 02:40:57;;;;;;;3.22;2.97;;;;;;;27.11;49.74;98915.81;2060907;28;20049;-47
2023/07/07 02:41:58;;;;;;;3.95;2.78;;;;;;;27.09;49.66;98928.84;2062288;28;20057;-48
2023/07/07 02:43:00;;;;;;;6.47;2.95;;;;;;;27.06;49.84;98926.63;2060443;28;20563;-48
2023/07/07 02:44:00;;;;;;;4.50;3.20;;;;;;;27.02;49.87;98923.56;2061730;28;20061;-49
2023/07/07 02:45:03;;;;;;;3.63;2.55;;;;;;;26.99;49.79;98910.47;2058762;28;20065;-49
2023/07/07 02:46:04;;;;;;;6.13;2.85;;;;;;;27.01;50.06;98918.41;2060571;28;20054;-49
2023/07/07 02:47:08;;;;;;;5.30;2.42;;;;;;;27.00;50.08;98925.75;2062465;28;20072;-51
2023/07/07 02:48:09;;;;;;;3.70;2.72;;;;;;;26.95;50.14;98923.78;2061363;28;20052;-48
2023/07/07 02:49:11;;;;;;;5.07;2.85;;;;;;;26.96;50.07;98922.69;2060456;28;20049;-48
2023/07/07 02:50:12;;;;;;;3.15;2.58;;;;;;;26.97;50.12;98918.09;2062012;28;20473;-50
2023/07/07 02:51:13;;;;;;;3.35;2.55;;;;;;;26.99;50.26;98912.38;2064808;28;20053;-49
2023/07/07 02:52:14;;;;;;;2.67;2.47;;;;;;;26.99;49.75;98926.00;2060654;28;20076;-49
2023/07/07 02:53:15;;;;;;;4.05;2.80;;;;;;;26.97;49.76;98920.81;2057930;28;20133;-49
2023/07/07 02:54:17;;;;;;;5.03;3.30;;;;;;;26.94;49.97;98922.13;2061094;28;20049;-48
2023/07/07 02:55:18;;;;;;;4.28;2.65;;;;;;;26.93;50.14;98920.47;2060126;28;20057;-47
2023/07/07 02:56:20;;;;;;;3.55;2.88;;;;;;;26.91;49.75;98919.94;2062159;28;20233;-48
2023/07/07 02:57:20;;;;;;;4.55;2.58;;;;;;;26.90;50.06;98918.25;2058465;28;20057;-47
2023/07/07 02:58:23;;;;;;;4.88;2.55;;;;;;;26.87;49.99;98917.94;2058100;28;20713;-49
2023/07/07 02:59:24;;;;;;;5.85;3.08;;;;;;;26.84;50.16;98924.72;2062414;28;20068;-48
2023/07/07 03:00:26;;;;;;;4.35;3.00;;;;;;;26.84;50.08;98919.28;2063174;28;20629;-49
2023/07/07 03:01:26;;;;;;;4.50;3.08;;;;;;;26.84;50.32;98922.00;2061461;28;20057;-48
2023/07/07 03:02:30;;;;;;;6.15;3.20;;;;;;;26.82;50.20;98921.41;2063465;28;20050;-48
2023/07/07 03:03:30;;;;;;;4.85;2.92;;;;;;;26.86;50.25;98928.00;2060120;28;20053;-48
2023/07/07 03:04:33;;;;;;;4.15;2.83;;;;;;;26.89;49.78;98924.78;2060343;28;20081;-47
2023/07/07 03:05:33;;;;;;;7.07;3.10;;;;;;;26.89;50.15;98919.34;2060995;28;20046;-48
2023/07/07 03:06:35;;;;;;;2.55;2.28;;;;;;;26.92;50.26;98924.28;2059468;28;20161;-48
2023/07/07 03:07:36;;;;;;;3.58;2.42;;;;;;;26.95;49.93;98921.06;2061837;28;20073;-49
2023/07/07 03:08:38;;;;;;;2.53;2.33;;;;;;;26.93;49.71;98922.38;2061025;28;20436;-48
2023/07/07 03:09:39;;;;;;;5.03;2.92;;;;;;;26.92;49.79;98923.47;2063593;28;20053;-49
2023/07/07 03:10:42;;;;;;;3.15;2.33;;;;;;;26.94;49.71;98930.31;2062195;28;21108;-51
2023/07/07 03:11:44;;;;;;;3.50;2.40;;;;;;;26.94;49.86;98929.47;2051118;28;20136;-50
2023/07/07 03:12:45;;;;;;;4.70;3.00;;;;;;;26.92;50.23;98931.63;2060535;28;20045;-48
2023/07/07 03:13:48;;;;;;;3.72;2.83;;;;;;;26.95;50.01;98934.66;2054474;28;20207;-51
2023/07/07 03:14:52;;;;;;;3.67;2.55;;;;;;;26.96;50.05;98939.03;2059428;28;20054;-49
2023/07/07 03:15:53;;;;;;;5.10;2.72;;;;;;;26.96;50.09;98946.38;2060827;28;20045;-48
2023/07/07 03:16:57;;;;;;;2.90;2.33;;;;;;;26.99;49.99;98942.31;2061486;28;20064;-51
2023/07/07 03:18:00;;;;;;;3.20;2.55;;;;;;;26.97;49.90;98956.19;2055108;28;20508;-50
2023/07/07 03:19:04;;;;;;;3.88;2.80;;;;;;;26.99;49.60;98956.75;2058127;28;20104;-47
2023/07/07 03:20:07;;;;;;;5.85;2.80;;;;;;;27.01;49.88;98953.78;2056352;28;20049;-50
2023/07/07 03:21:09;;;;;;;3.17;2.88;;;;;;;27.00;49.59;98954.88;2060125;28;20129;-50
2023/07/07 03:22:10;;;;;;;6.25;3.08;;;;;;;27.02;49.79;98955.44;2055503;28;20057;-55
2023/07/07 03:23:12;;;;;;;2.70;2.47;;;;;;;27.02;49.42;98949.97;2064013;28;20527;-49
2023/07/07 03:24:14;;;;;;;3.47;3.03;;;;;;;27.03;49.38;98949.75;2055260;28;20049;-49
2023/07/07 03:25:16;;;;;;;5.38;3.05;;;;;;;27.02;49.45;98952.72;2058439;28;20155;-52
2023/07/07 03:26:19;;;;;;;3.50;2.45;;;;;;;27.05;49.63;98954.94;2057550;28;20050;-51
2023/07/07 03:27:21;;;;;;;5.90;2.70;;;;;;;27.02;49.43;98955.44;2059207;28;20056;-46
2023/07/07 03:28:22;;;;;;;5.70;3.70;;;;;;;27.02;49.34;98950.81;2059093;28;20054;-47
2023/07/07 03:29:24;;;;;;;3.33;2.92;;;;;;;27.01;49.58;98953.78;2059207;28;20047;-50
2023/07/07 03:30:26;;;;;;;3.08;2.75;;;;;;;27.02;49.80;98956.25;2060003;28;20053;-52
2023/07/07 03:31:31;;;;;;;3.47;2.78;;;;;;;27.04;49.34;98956.81;2061112;28;20045;-51
2023/07/07 03:32:31;;;;;;;4.97;2.53;;;;;;;27.01;49.74;98956.50;2058404;28;20052;-52
2023/07/07 03:33:35;;;;;;;4.00;2.65;;;;;;;27.00;49.58;98957.59;2059601;28;20057;-53
2023/07/07 03:34:36;;;;;;;3.65;2.40;;;;;;;27.01;49.68;98957.34;2058080;28;20042;-50
2023/07/07 03:35:38;;;;;;;4.40;3.15;;;;;;;27.02;49.77;98958.16;2064710;28;20046;-56
2023/07/07 03:36:40;;;;;;;3.38;2.50;;;;;;;27.01;49.39;98954.59;2060822;28;20083;-52
2023/07/07 03:37:41;;;;;;;2.55;2.17;;;;;;;27.01;49.38;98960.06;2062900;28;20049;-54
2023/07/07 03:38:44;;;;;;;3.35;2.97;;;;;;;27.03;49.32;98962.53;2064070;28;20073;-49
2023/07/07 03:39:44;;;;;;;3.63;2.80;;;;;;;27.01;49.67;98953.78;2064505;28;20073;-47
2023/07/07 03:40:48;;;;;;;5.55;2.92;;;;;;;27.01;49.50;98954.59;2059334;28;20046;-54
2023/07/07 03:41:49;;;;;;;3.78;2.50;;;;;;;27.01;49.38;98954.59;2058148;28;20054;-47
2023/07/07 03:42:51;;;;;;;4.60;2.33;;;;;;;27.02;49.50;98958.97;2057885;28;20073;-55
2023/07/07 03:43:53;;;;;;;5.50;3.15;;;;;;;27.01;49.76;98961.97;2061539;28;20053;-48
2023/07/07 03:44:55;;;;;;;3.65;2.70;;;;;;;27.01;49.73;98954.59;2063039;28;20096;-54
2023/07/07 03:45:55;;;;;;;3.22;2.85;;;;;;;27.02;49.43;98958.16;2062268;28;20077;-49
2023/07/07 03:46:57;;;;;;;4.90;2.85;;;;;;;27.04;49.50;98964.19;2065117;28;20062;-48
2023/07/07 03:47:58;;;;;;;4.25;2.85;;;;;;;27.01;49.80;98960.06;2063293;28;20050;-50
2023/07/07 03:49:02;;;;;;;5.45;2.88;;;;;;;26.96;49.62;98966.25;2062818;28;20073;-46
2023/07/07 03:50:03;;;;;;;4.13;2.55;;;;;;;26.95;50.02;98966.50;2065736;28;20080;-51
2023/07/07 03:51:05;;;;;;;4.45;3.03;;;;;;;26.95;49.59;98972.78;2062394;28;20539;-50
2023/07/07 03:52:07;;;;;;;4.88;2.38;;;;;;;26.95;49.93;98970.06;2065048;28;21686;-49
2023/07/07 03:53:09;;;;;;;4.03;3.10;;;;;;;26.92;49.71;98965.09;2064113;28;20132;-49
2023/07/07 03:54:10;;;;;;;4.72;3.10;;;;;;;26.94;49.52;98967.56;2063159;28;20046;-48
2023/07/07 03:55:12;;;;;;;6.22;3.05;;;;;;;26.92;49.99;98967.00;2065272;28;20073;-48
2023/07/07 03:56:13;;;;;;;2.90;2.60;;;;;;;26.92;50.05;98965.09;2062177;28;20042;-48
2023/07/07 03:57:15;;;;;;;4.53;2.75;;;;;;;26.94;49.92;98970.28;2062888;28;20046;-50
2023/07/07 03:58:16;;;;;;;6.30;2.95;;;;;;;26.93;49.67;98966.75;2064472;28;20042;-49
2023/07/07 03:59:20;;;;;;;3.33;3.00;;;;;;;26.91;50.18;98965.34;2060690;28;20129;-48
2023/07/07 04:00:22;;;;;;;3.45;2.30;;;;;;;26.89;49.85;98973.78;2063170;28;20057;-49
2023/07/07 04:01:23;;;;;;;4.68;2.83;;;;;;;26.89;50.21;98973.78;2056726;28;20201;-50
2023/07/07 04:02:24;;;;;;;2.88;2.20;;;;;;;26.88;50.22;98972.09;2062717;28;20068;-51
2023/07/07 04:03:27;;;;;;;4.32;3.50;;;;;;;26.87;50.10;98965.03;2064498;28;20544;-48
2023/07/07 04:04:29;;;;;;;5.25;2.97;;;;;;;26.89;49.92;98967.50;2061049;28;20042;-49
2023/07/07 04:05:31;;;;;;;3.58;2.55;;;;;;;26.88;50.07;98969.38;2057315;28;20084;-48
2023/07/07 04:06:33;;;;;;;6.47;2.33;;;;;;;26.85;50.32;98969.88;2054945;28;20437;-50
2023/07/07 04:07:35;;;;;;;3.30;3.00;;;;;;;26.86;49.94;98957.13;2059295;28;20852;-48
2023/07/07 04:08:35;;;;;;;3.25;2.35;;;;;;;26.83;50.05;98966.63;2062880;28;20080;-49
2023/07/07 04:09:37;;;;;;;2.88;2.00;;;;;;;26.86;49.91;98963.41;2061233;28;20121;-48
2023/07/07 04:10:39;;;;;;;4.57;2.38;;;;;;;26.83;50.44;98961.19;2058729;28;20791;-48
2023/07/07 04:11:41;;;;;;;3.03;2.33;;;;;;;26.79;50.25;98962.72;2057276;28;20050;-49
2023/07/07 04:12:42;;;;;;;3.35;2.92;;;;;;;26.82;50.15;98966.84;2059340;28;20053;-48
2023/07/07 04:13:46;;;;;;;3.22;2.45;;;;;;;26.80;50.20;98963.56;2059606;28;20137;-49
2023/07/07 04:14:47;;;;;;;6.85;3.45;;;;;;;26.80;50.11;98969.00;2058517;28;20145;-49
2023/07/07 04:15:57;;;;;;;6.47;3.80;;;;;;;26.80;50.26;98969.00;2056886;28;20049;-50
2023/07/07 04:16:58;;;;;;;5.10;2.67;;;;;;;26.82;50.05;98980.47;2056146;28;20061;-48
2023/07/07 04:18:00;;;;;;;4.75;2.75;;;;;;;26.84;50.13;98970.97;2057833;28;20058;-50
2023/07/07 04:19:01;;;;;;;3.85;2.85;;;;;;;26.84;50.19;98981.88;2055138;28;20045;-48
2023/07/07 04:20:06;;;;;;;4.35;2.80;;;;;;;26.82;50.40;98978.56;2056422;28;20061;-50
2023/07/07 04:21:09;;;;;;;3.65;2.40;;;;;;;26.84;50.22;98976.41;2062543;28;20064;-49
2023/07/07 04:22:11;;;;;;;3.08;2.58;;;;;;;26.85;50.47;98966.34;2060068;28;20723;-48
2023/07/07 04:23:12;;;;;;;3.95;2.58;;;;;;;26.84;50.16;98968.25;2063499;28;20050;-48
2023/07/07 04:24:14;;;;;;;5.50;2.60;;;;;;;26.84;49.94;98970.97;2064340;28;20229;-49
2023/07/07 04:25:17;;;;;;;6.53;2.95;;;;;;;26.86;50.31;98974.28;2056687;28;20497;-49
2023/07/07 04:26:19;;;;;;;6.78;3.40;;;;;;;26.85;49.91;98967.16;2057329;28;20080;-48
2023/07/07 04:27:20;;;;;;;2.97;2.72;;;;;;;26.84;50.19;98968.25;2057406;28;20053;-49
2023/07/07 04:28:22;;;;;;;5.75;2.55;;;;;;;26.84;50.14;98973.69;2059136;28;20445;-49
2023/07/07 04:29:23;;;;;;;10.18;4.47;;;;;;;26.85;50.35;98972.63;2062374;28;20539;-48
2023/07/07 04:30:25;;;;;;;8.52;2.72;;;;;;;26.83;50.58;98968.50;2059802;28;20057;-49
2023/07/07 04:31:28;;;;;;;4.97;3.17;;;;;;;26.80;50.46;98972.56;2064752;28;20077;-47
2023/07/07 04:32:30;;;;;;;3.95;2.67;;;;;;;26.82;50.26;98975.00;2064023;28;20046;-47
2023/07/07 04:33:31;;;;;;;4.03;2.80;;;;;;;26.81;50.47;98976.91;2065352;28;20050;-48
2023/07/07 04:34:33;;;;;;;6.93;2.90;;;;;;;26.81;50.09;98978.81;2062234;28;20086;-48
2023/07/07 04:35:37;;;;;;;5.30;2.50;;;;;;;26.81;50.32;98982.38;2061862;28;20145;-48
2023/07/07 04:36:38;;;;;;;3.17;2.88;;;;;;;26.82;50.18;98975.84;2064460;28;20061;-48
2023/07/07 04:37:39;;;;;;;5.40;2.97;;;;;;;26.82;50.34;98984.00;2063217;28;20049;-50
2023/07/07 04:38:41;;;;;;;5.20;3.25;;;;;;;26.82;50.51;98977.75;2063468;28;20137;-50
2023/07/07 04:39:42;;;;;;;3.22;2.50;;;;;;;26.81;50.45;98976.91;2059048;28;20141;-47
2023/07/07 04:40:44;;;;;;;5.72;2.50;;;;;;;26.84;50.02;98976.41;2061567;28;20053;-47
2023/07/07 04:41:44;;;;;;;4.95;2.78;;;;;;;26.83;49.98;98979.38;2061561;28;20092;-48
2023/07/07 04:42:47;;;;;;;4.18;2.50;;;;;;;26.84;50.45;98981.03;2060974;28;20123;-48
2023/07/07 04:43:50;;;;;;;4.07;2.80;;;;;;;26.84;50.21;98979.13;2061442;28;20049;-48
2023/07/07 04:44:52;;;;;;;4.35;2.60;;;;;;;26.80;50.16;98978.00;2058886;28;20062;-49
2023/07/07 04:45:53;;;;;;;4.68;3.20;;;;;;;26.80;50.01;98978.00;2059224;28;20057;-48
2023/07/07 04:46:55;;;;;;;3.92;2.53;;;;;;;26.81;50.36;98979.63;2057334;28;20140;-48
2023/07/07 04:47:56;;;;;;;3.35;2.63;;;;;;;26.83;50.09;98980.22;2057741;28;20065;-51
2023/07/07 04:48:59;;;;;;;3.60;2.58;;;;;;;26.80;50.37;98979.88;2058313;28;21892;-51
2023/07/07 04:49:59;;;;;;;3.20;2.47;;;;;;;26.81;50.56;98976.91;2062975;28;20042;-48
2023/07/07 04:51:06;;;;;;;3.38;2.65;;;;;;;26.85;50.36;98978.06;2063382;28;20050;-48
2023/07/07 04:52:07;;;;;;;3.08;2.38;;;;;;;26.88;51.52;98982.19;2056928;28;20188;-48
2023/07/07 04:53:09;;;;;;;5.13;2.78;;;;;;;26.88;51.57;98977.56;2060065;28;20042;-48
2023/07/07 04:54:12;;;;;;;3.72;2.17;;;;;;;26.90;51.81;98975.41;2059794;28;20801;-48
2023/07/07 04:55:14;;;;;;;4.80;2.45;;;;;;;26.89;51.61;98978.41;2057852;28;20412;-51
2023/07/07 04:56:17;;;;;;;6.95;3.83;;;;;;;26.91;51.54;98977.09;2051835;28;21359;-49
2023/07/07 04:57:19;;;;;;;5.53;2.65;;;;;;;26.88;51.57;98977.56;2056930;28;20066;-47
2023/07/07 04:58:20;;;;;;;4.50;2.35;;;;;;;26.90;51.67;98974.59;2060337;28;20061;-50